Time;durP1;ratioP1;P1;durP2;ratioP2;P2;SDS_P1;SDS_P2;PMS_P1;PMS_P2;Temp;Humidity;BMP_temperature;BMP_pressure;BME280_temperature;BME280_humidity;BME280_pressure;Samples;Min_cycle;Max_cycle;Signal;HPM_P1;HPM_P2
2022/11/09 00:00:38;;;;;;;4.90;1.85;;;15.90;99.90;;;;;;5030675;28;20542;-66
2022/11/09 00:03:03;;;;;;;7.03;2.50;;;15.80;99.90;;;;;;5022928;28;20178;-66
2022/11/09 00:05:29;;;;;;;3.95;1.85;;;15.80;99.90;;;;;;5047519;28;20237;-67
2022/11/09 00:07:54;;;;;;;4.10;1.55;;;15.80;99.90;;;;;;5014794;28;20193;-66
2022/11/09 00:10:20;;;;;;;7.60;2.13;;;15.70;99.90;;;;;;5032102;28;20555;-67
2022/11/09 00:12:46;;;;;;;2.80;1.67;;;15.70;99.90;;;;;;5029845;28;20190;-67
2022/11/09 00:15:12;;;;;;;2.92;2.08;;;15.60;99.90;;;;;;5015221;28;20197;-67
2022/11/09 00:17:38;;;;;;;10.38;2.38;;;15.60;99.90;;;;;;5030664;28;20190;-68
2022/11/09 00:20:04;;;;;;;6.20;2.85;;;15.70;99.90;;;;;;5012589;28;20175;-67
2022/11/09 00:22:29;;;;;;;2.15;1.70;;;15.60;99.90;;;;;;5027330;28;20200;-66
2022/11/09 00:24:55;;;;;;;4.63;2.05;;;15.50;99.90;;;;;;5030943;28;20678;-66
2022/11/09 00:27:21;;;;;;;2.40;1.70;;;15.50;99.90;;;;;;5030480;28;20241;-67
2022/11/09 00:29:46;;;;;;;5.07;1.42;;;15.30;99.90;;;;;;5030447;28;20546;-67
2022/11/09 00:32:12;;;;;;;1.50;1.40;;;15.30;99.90;;;;;;5032496;28;20187;-67
2022/11/09 00:34:38;;;;;;;2.60;1.58;;;15.30;99.90;;;;;;5023819;28;20198;-66
2022/11/09 00:37:03;;;;;;;8.15;2.05;;;15.40;99.90;;;;;;5030577;28;20183;-66
2022/11/09 00:39:29;;;;;;;3.97;1.88;;;15.40;99.90;;;;;;5029762;28;20198;-67
2022/11/09 00:41:55;;;;;;;3.75;1.23;;;15.40;99.90;;;;;;5031732;28;20175;-66
2022/11/09 00:44:20;;;;;;;1.70;1.60;;;15.40;99.90;;;;;;5032155;28;20222;-67
2022/11/09 00:46:46;;;;;;;6.30;2.47;;;15.30;99.90;;;;;;5014415;28;20617;-67
2022/11/09 00:49:11;;;;;;;2.63;1.73;;;15.30;99.90;;;;;;5027011;28;20179;-67
2022/11/09 00:51:37;;;;;;;5.75;1.30;;;15.30;99.90;;;;;;5024938;28;20186;-66
2022/11/09 00:54:03;;;;;;;3.20;1.60;;;15.20;99.90;;;;;;5026278;28;20188;-66
2022/11/09 00:56:28;;;;;;;3.55;1.65;;;15.10;99.90;;;;;;5015336;28;20187;-66
2022/11/09 00:58:55;;;;;;;3.53;1.25;;;15.10;99.90;;;;;;5012183;28;20650;-66
2022/11/09 01:01:21;;;;;;;5.50;1.48;;;15.10;99.90;;;;;;5021472;28;20188;-66
2022/11/09 01:03:47;;;;;;;7.95;1.60;;;15.00;99.90;;;;;;5039468;28;20202;-66
2022/11/09 01:06:15;;;;;;;1.20;1.13;;;15.00;99.90;;;;;;5030803;28;20286;-66
2022/11/09 01:08:41;;;;;;;6.05;1.15;;;15.00;99.90;;;;;;5018806;28;20188;-66
2022/11/09 01:11:08;;;;;;;3.65;1.40;;;15.00;99.90;;;;;;5031597;28;20234;-66
2022/11/09 01:13:35;;;;;;;2.55;0.90;;;14.90;99.90;;;;;;5028447;28;20248;-67
2022/11/09 01:16:05;;;;;;;6.35;1.13;;;14.80;99.90;;;;;;5018957;28;20269;-66
2022/11/09 01:18:31;;;;;;;6.85;1.63;;;14.80;99.90;;;;;;5030273;28;20636;-66
2022/11/09 01:20:57;;;;;;;3.65;1.60;;;14.70;99.90;;;;;;5017302;28;20185;-67
2022/11/09 01:23:22;;;;;;;5.05;2.15;;;14.70;99.90;;;;;;5021422;28;20278;-66
2022/11/09 01:25:48;;;;;;;2.28;1.17;;;14.80;99.90;;;;;;5027918;28;20258;-66
2022/11/09 01:28:13;;;;;;;9.52;1.88;;;14.80;99.90;;;;;;5030979;28;20197;-66
2022/11/09 01:30:41;;;;;;;2.00;1.00;;;14.70;99.90;;;;;;5029884;28;21960;-66
2022/11/09 01:33:10;;;;;;;2.42;1.20;;;14.70;99.90;;;;;;5016012;28;20205;-66
2022/11/09 01:35:37;;;;;;;6.28;1.70;;;14.70;99.90;;;;;;5034673;28;20578;-67
2022/11/09 01:38:04;;;;;;;4.72;1.50;;;14.60;99.90;;;;;;5033268;28;20210;-67
2022/11/09 01:40:32;;;;;;;1.77;1.10;;;14.70;99.90;;;;;;5032832;28;20193;-67
2022/11/09 01:42:57;;;;;;;7.93;2.00;;;14.70;99.90;;;;;;4998354;28;20183;-68
2022/11/09 01:45:28;;;;;;;6.85;1.38;;;14.80;99.90;;;;;;5003149;28;20270;-67
2022/11/09 01:48:08;;;;;;;2.33;1.20;;;14.80;99.90;;;;;;5033656;28;20249;-67
2022/11/09 01:50:50;;;;;;;1.70;1.08;;;14.90;99.90;;;;;;5028244;28;20646;-66
2022/11/09 01:53:19;;;;;;;5.20;2.08;;;14.90;99.90;;;;;;5029526;28;20187;-66
2022/11/09 01:55:49;;;;;;;3.92;1.67;;;15.00;99.90;;;;;;5032000;28;20225;-67
2022/11/09 01:58:21;;;;;;;9.40;1.60;;;15.00;99.90;;;;;;5021402;28;20223;-67
2022/11/09 02:00:49;;;;;;;5.40;1.80;;;15.00;99.90;;;;;;5023201;28;20174;-67
2022/11/09 02:03:30;;;;;;;12.75;2.42;;;15.00;99.90;;;;;;5025600;28;20180;-66
2022/11/09 02:05:58;;;;;;;7.97;2.65;;;15.00;99.90;;;;;;5027682;28;20527;-66
2022/11/09 02:08:25;;;;;;;6.47;2.55;;;15.00;99.90;;;;;;5001507;28;20175;-67
2022/11/09 02:11:12;;;;;;;9.35;3.47;;;15.00;99.90;;;;;;5029215;28;20321;-66
2022/11/09 02:13:43;;;;;;;7.57;2.83;;;14.90;99.90;;;;;;5027621;28;20360;-66
2022/11/09 02:16:12;;;;;;;9.80;3.75;;;14.90;99.90;;;;;;5032937;28;20205;-66
2022/11/09 02:18:49;;;;;;;8.30;3.47;;;14.80;99.90;;;;;;5028172;28;20310;-66
2022/11/09 02:21:15;;;;;;;7.05;2.90;;;14.70;99.90;;;;;;5020189;28;20202;-65
2022/11/09 02:23:40;;;;;;;11.95;3.13;;;14.70;99.90;;;;;;5033148;28;20217;-66
2022/11/09 02:26:12;;;;;;;6.18;2.78;;;14.60;99.90;;;;;;5026404;28;20525;-66
2022/11/09 02:28:39;;;;;;;5.38;3.00;;;14.50;99.90;;;;;;5032160;28;20186;-67
2022/11/09 02:31:08;;;;;;;7.85;2.75;;;14.50;99.90;;;;;;5033461;28;20182;-66
2022/11/09 02:33:54;;;;;;;6.47;3.05;;;14.50;99.90;;;;;;5034123;28;20201;-66
2022/11/09 02:36:23;;;;;;;3.90;2.70;;;14.50;99.90;;;;;;5029506;28;20262;-66
2022/11/09 02:38:51;;;;;;;6.95;2.70;;;14.50;99.90;;;;;;5030346;28;20187;-66
2022/11/09 02:41:19;;;;;;;8.70;3.03;;;14.50;99.90;;;;;;5032237;28;20178;-68
2022/11/09 02:43:45;;;;;;;6.28;2.17;;;14.50;99.90;;;;;;5023513;28;20265;-69
2022/11/09 02:46:10;;;;;;;9.77;3.25;;;14.60;99.90;;;;;;5024546;28;20183;-68
2022/11/09 02:48:36;;;;;;;4.03;2.22;;;14.60;99.90;;;;;;5029508;28;20213;-68
2022/11/09 02:51:02;;;;;;;9.27;3.67;;;14.60;99.90;;;;;;5017980;28;20187;-68
2022/11/09 02:53:27;;;;;;;7.18;2.13;;;14.60;99.90;;;;;;5026135;28;20183;-68
2022/11/09 02:55:53;;;;;;;4.05;2.03;;;14.60;99.90;;;;;;4998634;28;20183;-68
2022/11/09 02:58:18;;;;;;;7.88;3.03;;;14.70;99.90;;;;;;5016003;28;20182;-68
2022/11/09 03:00:44;;;;;;;5.00;2.47;;;14.70;99.90;;;;;;5033023;28;20205;-68
2022/11/09 03:03:10;;;;;;;4.13;2.08;;;14.60;99.90;;;;;;5034022;28;20203;-69
2022/11/09 03:05:36;;;;;;;5.85;2.40;;;14.60;99.90;;;;;;5019337;28;20219;-67
2022/11/09 03:08:02;;;;;;;8.57;3.78;;;14.50;99.90;;;;;;5016200;28;20190;-68
2022/11/09 03:10:28;;;;;;;6.70;3.90;;;14.50;99.90;;;;;;4995974;28;20187;-67
2022/11/09 03:12:54;;;;;;;15.98;3.20;;;14.40;99.90;;;;;;5026713;28;20184;-67
2022/11/09 03:15:19;;;;;;;10.15;2.88;;;14.40;99.90;;;;;;5032665;28;20190;-67
2022/11/09 03:17:45;;;;;;;8.52;3.50;;;14.50;99.90;;;;;;5030429;28;20550;-66
2022/11/09 03:20:12;;;;;;;10.52;2.92;;;14.40;99.90;;;;;;5033497;28;20186;-66
2022/11/09 03:22:37;;;;;;;7.38;3.33;;;14.30;99.90;;;;;;5031930;28;20179;-67
2022/11/09 03:25:03;;;;;;;6.30;2.83;;;14.30;99.90;;;;;;5033126;28;20213;-67
2022/11/09 03:27:29;;;;;;;6.40;2.40;;;14.30;99.90;;;;;;5026904;28;20194;-67
2022/11/09 03:29:55;;;;;;;4.78;2.58;;;14.40;99.90;;;;;;5026659;28;20575;-67
2022/11/09 03:32:20;;;;;;;9.73;2.15;;;14.30;99.90;;;;;;4998036;28;20281;-67
2022/11/09 03:34:48;;;;;;;5.35;2.35;;;14.30;99.90;;;;;;5027427;28;20184;-67
2022/11/09 03:37:13;;;;;;;4.25;1.77;;;14.30;99.90;;;;;;5026649;28;20259;-66
2022/11/09 03:39:39;;;;;;;4.80;2.25;;;14.30;99.90;;;;;;4998045;28;20207;-66
2022/11/09 03:42:05;;;;;;;5.88;2.38;;;14.20;99.90;;;;;;5021380;28;20720;-66
2022/11/09 03:44:30;;;;;;;5.63;3.20;;;14.20;99.90;;;;;;5035601;28;20226;-66
2022/11/09 03:46:56;;;;;;;5.15;1.42;;;14.20;99.90;;;;;;5026458;28;20636;-66
2022/11/09 03:49:22;;;;;;;2.83;1.90;;;14.10;99.90;;;;;;5027651;28;20694;-66
2022/11/09 03:51:49;;;;;;;6.57;2.20;;;14.20;99.90;;;;;;5019084;28;20254;-66
2022/11/09 03:54:15;;;;;;;10.10;1.73;;;14.20;99.90;;;;;;5028539;28;20185;-66
2022/11/09 03:56:40;;;;;;;3.80;2.00;;;14.20;99.90;;;;;;5025193;28;20183;-67
2022/11/09 03:59:06;;;;;;;7.00;1.95;;;14.20;99.90;;;;;;5027965;28;20182;-67
2022/11/09 04:01:32;;;;;;;3.17;1.67;;;14.10;99.90;;;;;;5019184;28;20656;-67
2022/11/09 04:03:57;;;;;;;5.95;2.35;;;14.00;99.90;;;;;;5017525;28;20210;-66
2022/11/09 04:06:23;;;;;;;3.30;1.45;;;14.00;99.90;;;;;;5018684;28;20229;-67
2022/11/09 04:08:49;;;;;;;2.90;1.83;;;13.90;99.90;;;;;;5031914;28;20210;-67
2022/11/09 04:11:14;;;;;;;3.72;1.70;;;14.00;99.90;;;;;;5031633;28;20255;-67
2022/11/09 04:13:40;;;;;;;7.40;2.67;;;13.90;99.90;;;;;;5032250;28;20179;-67
2022/11/09 04:16:06;;;;;;;2.22;1.80;;;13.90;99.90;;;;;;5032079;28;20272;-66
2022/11/09 04:18:32;;;;;;;5.15;1.75;;;13.90;99.90;;;;;;5025303;28;20205;-67
2022/11/09 04:20:58;;;;;;;2.72;1.27;;;14.00;99.90;;;;;;5024787;28;20186;-67
2022/11/09 04:23:24;;;;;;;2.95;2.15;;;13.80;99.90;;;;;;5032774;28;20178;-67
2022/11/09 04:25:49;;;;;;;4.60;2.17;;;13.90;99.90;;;;;;5028907;28;20233;-67
2022/11/09 04:28:15;;;;;;;6.65;1.75;;;13.90;99.90;;;;;;5032838;28;20196;-67
2022/11/09 04:30:42;;;;;;;3.30;1.60;;;14.00;99.90;;;;;;5022010;28;20186;-68
2022/11/09 04:33:08;;;;;;;8.18;1.50;;;14.00;99.90;;;;;;5031540;28;20186;-66
2022/11/09 04:35:34;;;;;;;5.20;2.10;;;14.00;99.90;;;;;;5019762;28;20195;-67
2022/11/09 04:38:06;;;;;;;5.70;2.05;;;13.90;99.90;;;;;;5031123;28;20643;-68
2022/11/09 04:40:33;;;;;;;4.30;2.85;;;13.90;99.90;;;;;;5028030;28;20179;-67
2022/11/09 04:42:59;;;;;;;9.50;2.20;;;13.90;99.90;;;;;;5030462;28;20211;-67
2022/11/09 04:45:26;;;;;;;3.80;2.47;;;13.80;99.90;;;;;;5031228;28;20225;-67
2022/11/09 04:47:57;;;;;;;3.13;1.80;;;13.80;99.90;;;;;;5029340;28;20336;-67
2022/11/09 04:50:23;;;;;;;10.82;3.70;;;13.80;99.90;;;;;;5030274;28;20182;-67
2022/11/09 04:52:48;;;;;;;3.00;1.58;;;13.70;99.90;;;;;;5017933;28;20191;-67
2022/11/09 04:55:14;;;;;;;6.70;2.78;;;13.80;99.90;;;;;;5006155;28;20241;-67
2022/11/09 04:57:39;;;;;;;5.22;2.13;;;13.70;99.90;;;;;;5019891;28;20543;-67
2022/11/09 05:00:06;;;;;;;3.75;1.73;;;13.70;99.90;;;;;;5016269;28;20640;-67
2022/11/09 05:02:31;;;;;;;1.70;1.60;;;13.70;99.90;;;;;;5025181;28;20183;-67
2022/11/09 05:04:57;;;;;;;3.70;1.88;;;13.60;99.90;;;;;;5027792;28;20217;-67
2022/11/09 05:07:23;;;;;;;3.30;1.95;;;13.70;99.90;;;;;;5022941;28;20666;-67
2022/11/09 05:09:48;;;;;;;3.40;2.08;;;13.70;99.90;;;;;;5035154;28;20194;-68
2022/11/09 05:12:14;;;;;;;6.20;2.33;;;13.70;99.90;;;;;;5031881;28;20539;-67
2022/11/09 05:14:39;;;;;;;4.65;1.67;;;13.70;99.90;;;;;;5033098;28;20194;-68
2022/11/09 05:17:07;;;;;;;5.03;1.95;;;13.70;99.90;;;;;;5035843;28;20717;-67
2022/11/09 05:19:33;;;;;;;4.57;1.92;;;13.70;99.90;;;;;;5024342;28;20175;-68
2022/11/09 05:23:57;;;;;;;11.65;2.10;;;13.70;99.90;;;;;;5031196;28;20601;-66
2022/11/09 05:24:45;;;;;;;2.05;1.55;;;13.60;99.90;;;;;;5028217;28;20210;-68
2022/11/09 05:27:10;;;;;;;2.17;1.80;;;13.70;99.90;;;;;;5033957;28;20214;-67
2022/11/09 05:29:36;;;;;;;8.88;2.85;;;13.60;99.90;;;;;;5049080;28;20282;-66
2022/11/09 05:32:02;;;;;;;6.90;2.35;;;13.60;99.90;;;;;;5020126;28;20197;-66
2022/11/09 05:34:27;;;;;;;6.05;2.17;;;13.60;99.90;;;;;;5010494;28;20273;-66
2022/11/09 05:36:53;;;;;;;6.88;1.92;;;13.60;99.90;;;;;;5027317;28;20265;-67
2022/11/09 05:39:19;;;;;;;4.85;2.67;;;13.60;99.90;;;;;;5031584;28;20195;-66
2022/11/09 05:41:44;;;;;;;4.38;2.97;;;13.50;99.90;;;;;;5030731;28;20355;-68
2022/11/09 05:44:10;;;;;;;6.55;2.10;;;13.50;99.90;;;;;;5024053;28;20225;-66
2022/11/09 05:46:36;;;;;;;3.85;1.90;;;13.40;99.90;;;;;;5014104;28;20211;-66
2022/11/09 05:49:02;;;;;;;4.40;2.58;;;13.50;99.90;;;;;;5016504;28;20197;-65
2022/11/09 05:51:27;;;;;;;3.50;2.35;;;13.50;99.90;;;;;;5032953;28;20266;-66
2022/11/09 05:53:53;;;;;;;7.53;2.10;;;13.50;99.90;;;;;;5034536;28;20683;-67
2022/11/09 05:56:19;;;;;;;5.50;1.92;;;13.40;99.90;;;;;;5028723;28;20182;-67
2022/11/09 05:58:44;;;;;;;7.05;1.98;;;13.40;99.90;;;;;;5028305;28;20274;-68
2022/11/09 06:01:12;;;;;;;8.45;2.53;;;13.40;99.90;;;;;;5029016;28;20185;-67
2022/11/09 06:03:40;;;;;;;5.90;2.05;;;13.40;99.90;;;;;;5025614;28;20240;-68
2022/11/09 06:06:07;;;;;;;4.30;2.10;;;13.40;99.90;;;;;;4998795;28;20234;-68
2022/11/09 06:08:33;;;;;;;6.07;2.45;;;13.30;99.90;;;;;;5030667;28;20178;-68
2022/11/09 06:11:03;;;;;;;10.38;2.28;;;13.40;99.90;;;;;;5023699;28;20639;-68
2022/11/09 06:13:29;;;;;;;9.27;2.65;;;13.30;99.90;;;;;;5028965;28;20259;-66
2022/11/09 06:15:56;;;;;;;6.40;2.45;;;13.40;99.90;;;;;;5032414;28;20194;-67
2022/11/09 06:18:22;;;;;;;5.18;2.50;;;13.30;99.90;;;;;;5032963;28;20631;-66
2022/11/09 06:20:53;;;;;;;5.22;3.47;;;13.40;99.90;;;;;;5033341;28;20187;-65
2022/11/09 06:23:24;;;;;;;6.72;3.75;;;13.30;99.90;;;;;;5026539;28;20548;-65
2022/11/09 06:25:55;;;;;;;10.63;3.03;;;13.20;99.90;;;;;;5009109;28;20304;-66
2022/11/09 06:28:21;;;;;;;7.53;2.67;;;13.20;99.90;;;;;;5027614;28;20189;-66
2022/11/09 06:30:46;;;;;;;7.55;3.35;;;13.20;99.90;;;;;;5033505;28;20556;-66
2022/11/09 06:33:12;;;;;;;11.68;3.10;;;13.20;99.90;;;;;;5029185;28;20191;-66
2022/11/09 06:35:38;;;;;;;7.35;3.17;;;13.20;99.90;;;;;;5019955;28;20265;-67
2022/11/09 06:38:03;;;;;;;8.05;3.88;;;13.30;99.90;;;;;;5032630;28;20194;-67
2022/11/09 06:40:30;;;;;;;7.05;3.20;;;13.20;99.90;;;;;;5030723;28;20261;-65
2022/11/09 06:42:58;;;;;;;11.80;3.50;;;13.10;99.90;;;;;;5028984;28;20187;-67
2022/11/09 06:45:23;;;;;;;11.45;3.20;;;13.10;99.90;;;;;;5028410;28;20619;-65
2022/11/09 06:47:49;;;;;;;11.95;3.13;;;13.10;99.90;;;;;;5014685;28;20187;-66
2022/11/09 06:50:15;;;;;;;6.10;2.50;;;13.10;99.90;;;;;;5008169;28;20234;-65
2022/11/09 06:52:40;;;;;;;3.65;2.72;;;13.20;99.90;;;;;;4999341;28;20670;-66
2022/11/09 06:55:07;;;;;;;4.97;2.92;;;13.20;99.90;;;;;;5024714;28;20183;-66
2022/11/09 06:57:32;;;;;;;8.75;3.00;;;13.30;99.90;;;;;;5013009;28;20207;-66
2022/11/09 06:59:59;;;;;;;9.00;3.40;;;13.30;99.90;;;;;;5029845;28;20210;-66
2022/11/09 07:02:25;;;;;;;9.27;3.38;;;13.30;99.90;;;;;;5016452;28;20179;-67
2022/11/09 07:04:51;;;;;;;4.95;3.28;;;13.30;99.90;;;;;;5027958;28;20243;-66
2022/11/09 07:07:16;;;;;;;6.97;2.85;;;13.20;99.90;;;;;;5028536;28;20204;-66
2022/11/09 07:09:42;;;;;;;5.45;2.88;;;13.30;99.90;;;;;;5032822;28;20647;-65
2022/11/09 07:12:08;;;;;;;10.65;4.00;;;13.20;99.90;;;;;;5031785;28;20233;-66
2022/11/09 07:14:34;;;;;;;8.02;2.53;;;13.10;99.90;;;;;;5013564;28;20216;-65
2022/11/09 07:17:00;;;;;;;8.20;2.72;;;13.10;99.90;;;;;;5020448;28;20180;-66
2022/11/09 07:19:27;;;;;;;7.82;2.30;;;13.10;99.90;;;;;;5018422;28;20193;-66
2022/11/09 07:21:53;;;;;;;8.05;2.38;;;13.10;99.90;;;;;;5006762;28;20189;-67
2022/11/09 07:24:19;;;;;;;5.22;2.80;;;13.10;99.90;;;;;;5032580;28;20568;-66
2022/11/09 07:26:47;;;;;;;7.63;2.58;;;13.10;99.90;;;;;;4996644;28;20667;-65
2022/11/09 07:29:13;;;;;;;5.63;3.20;;;13.20;99.90;;;;;;5027304;28;20256;-65
2022/11/09 07:31:38;;;;;;;6.45;2.88;;;13.20;99.90;;;;;;5031724;28;20210;-65
2022/11/09 07:34:04;;;;;;;10.25;2.88;;;13.20;99.90;;;;;;5023970;28;20187;-65
2022/11/09 07:36:31;;;;;;;3.95;2.53;;;13.20;99.90;;;;;;5011818;28;20187;-65
2022/11/09 07:38:57;;;;;;;2.60;2.38;;;13.20;99.90;;;;;;5032109;28;20252;-65
2022/11/09 07:41:23;;;;;;;5.65;2.55;;;13.20;99.90;;;;;;5031372;28;20183;-66
2022/11/09 07:43:49;;;;;;;4.47;2.42;;;13.20;99.90;;;;;;5033078;28;20236;-66
2022/11/09 07:46:15;;;;;;;6.03;2.92;;;13.30;99.90;;;;;;5032536;28;20524;-66
2022/11/09 07:48:41;;;;;;;9.00;2.65;;;13.40;99.90;;;;;;5015135;28;20267;-65
2022/11/09 07:51:07;;;;;;;7.63;4.20;;;13.30;99.90;;;;;;5006177;28;20179;-67
2022/11/09 07:53:33;;;;;;;4.57;2.67;;;13.20;99.90;;;;;;5018960;28;20223;-65
2022/11/09 07:56:01;;;;;;;7.82;3.03;;;13.20;99.90;;;;;;5030905;28;20223;-66
2022/11/09 07:58:27;;;;;;;8.73;3.28;;;13.20;99.90;;;;;;5023559;28;20691;-68
2022/11/09 08:00:53;;;;;;;8.18;2.33;;;13.20;99.90;;;;;;5014513;28;20191;-66
2022/11/09 08:03:20;;;;;;;5.38;2.97;;;13.30;99.90;;;;;;5031758;28;20637;-66
2022/11/09 08:05:47;;;;;;;14.75;4.50;;;13.40;99.90;;;;;;5019089;28;20207;-65
2022/11/09 08:08:14;;;;;;;6.28;3.20;;;13.40;99.90;;;;;;5014772;28;20636;-66
2022/11/09 08:10:40;;;;;;;5.68;2.45;;;13.40;99.90;;;;;;5030378;28;20185;-66
2022/11/09 08:13:09;;;;;;;5.82;2.28;;;13.40;99.90;;;;;;5031723;28;20198;-66
2022/11/09 08:15:37;;;;;;;7.63;3.30;;;13.50;99.90;;;;;;5031912;28;20182;-67
2022/11/09 08:18:05;;;;;;;4.82;1.98;;;13.60;99.90;;;;;;5032698;28;20178;-67
2022/11/09 08:20:32;;;;;;;4.95;2.15;;;13.60;99.90;;;;;;5031909;28;20182;-65
2022/11/09 08:22:58;;;;;;;17.08;3.08;;;13.60;99.90;;;;;;5027002;28;20583;-66
2022/11/09 08:25:23;;;;;;;5.32;2.70;;;13.50;99.90;;;;;;5048014;28;20210;-65
2022/11/09 08:27:49;;;;;;;3.60;2.22;;;13.50;99.90;;;;;;4985313;28;20218;-66
2022/11/09 08:30:20;;;;;;;4.55;2.17;;;13.60;99.90;;;;;;5014190;28;20735;-67
2022/11/09 08:32:47;;;;;;;6.93;2.15;;;13.60;99.90;;;;;;5018551;28;20265;-66
2022/11/09 08:35:16;;;;;;;6.35;2.17;;;13.50;99.90;;;;;;5031591;28;20269;-66
2022/11/09 08:37:43;;;;;;;5.55;1.60;;;13.60;99.90;;;;;;5032296;28;20262;-66
2022/11/09 08:40:09;;;;;;;3.97;2.05;;;13.60;99.90;;;;;;5027898;28;20245;-66
2022/11/09 08:42:36;;;;;;;6.20;1.60;;;13.70;99.90;;;;;;5036066;28;20214;-66
2022/11/09 08:45:02;;;;;;;6.78;1.63;;;13.80;99.90;;;;;;5036856;28;20622;-65
2022/11/09 08:47:28;;;;;;;3.10;1.17;;;13.80;99.90;;;;;;5035696;28;20274;-67
2022/11/09 08:49:54;;;;;;;4.70;1.60;;;13.80;99.90;;;;;;5035638;28;20178;-67
2022/11/09 08:52:20;;;;;;;8.65;3.22;;;13.80;99.90;;;;;;5037370;28;20273;-66
2022/11/09 08:54:46;;;;;;;2.72;1.40;;;13.80;99.90;;;;;;5036901;28;20269;-66
2022/11/09 08:57:12;;;;;;;7.50;2.03;;;13.70;99.90;;;;;;5038693;28;20183;-66
2022/11/09 08:59:37;;;;;;;8.70;2.30;;;13.70;99.90;;;;;;5028848;28;20644;-67
2022/11/09 09:02:03;;;;;;;4.63;1.35;;;13.80;99.90;;;;;;5017206;28;20525;-67
2022/11/09 09:04:29;;;;;;;4.32;1.65;;;13.80;99.90;;;;;;5030116;28;20218;-66
2022/11/09 09:06:55;;;;;;;1.23;1.08;;;13.80;99.90;;;;;;5038362;28;20609;-66
2022/11/09 09:09:21;;;;;;;30.73;3.55;;;13.80;99.90;;;;;;5038353;28;20178;-67
2022/11/09 09:11:47;;;;;;;3.90;1.83;;;13.80;99.90;;;;;;5037729;28;20277;-67
2022/11/09 09:14:14;;;;;;;8.10;2.05;;;14.00;99.90;;;;;;5038009;28;20178;-67
2022/11/09 09:16:40;;;;;;;6.38;2.00;;;14.20;99.90;;;;;;5029074;28;20191;-67
2022/11/09 09:19:06;;;;;;;4.47;1.75;;;14.30;99.90;;;;;;5020628;28;20624;-66
2022/11/09 09:21:32;;;;;;;5.20;1.77;;;14.20;99.90;;;;;;5036961;28;20186;-67
2022/11/09 09:23:57;;;;;;;5.05;1.77;;;14.20;99.90;;;;;;5017415;28;20747;-67
2022/11/09 09:26:23;;;;;;;10.48;2.78;;;14.20;99.90;;;;;;5020239;28;20183;-67
2022/11/09 09:28:50;;;;;;;3.50;1.73;;;14.20;99.90;;;;;;5025462;28;20199;-66
2022/11/09 09:31:16;;;;;;;4.38;2.30;;;14.30;99.90;;;;;;5035724;28;20179;-66
2022/11/09 09:33:42;;;;;;;4.40;1.48;;;14.50;99.90;;;;;;5038984;28;20190;-65
2022/11/09 09:36:14;;;;;;;5.65;2.30;;;14.70;99.90;;;;;;5023354;28;20575;-65
2022/11/09 09:38:40;;;;;;;6.97;1.83;;;14.70;99.90;;;;;;5037454;28;20631;-65
2022/11/09 09:41:06;;;;;;;2.63;1.58;;;14.50;99.90;;;;;;5039619;28;20230;-66
2022/11/09 09:43:40;;;;;;;8.85;1.73;;;14.30;99.90;;;;;;5036998;28;20178;-66
2022/11/09 09:46:22;;;;;;;5.93;1.85;;;14.30;99.90;;;;;;5034291;28;20497;-64
2022/11/09 09:48:53;;;;;;;8.52;2.03;;;14.30;99.90;;;;;;5020926;28;20206;-65
2022/11/09 09:51:31;;;;;;;5.32;1.73;;;14.30;99.90;;;;;;5033710;28;20187;-66
2022/11/09 09:54:05;;;;;;;4.72;1.73;;;14.30;99.90;;;;;;5032267;28;20168;-66
2022/11/09 09:56:39;;;;;;;2.70;1.35;;;14.40;99.90;;;;;;5029710;28;20631;-66
2022/11/09 09:59:19;;;;;;;5.53;1.85;;;14.50;99.90;;;;;;5034979;28;20195;-66
2022/11/09 10:01:46;;;;;;;1.65;1.05;;;14.40;99.90;;;;;;5035002;28;20241;-66
2022/11/09 10:04:23;;;;;;;5.90;1.85;;;14.40;99.90;;;;;;5029137;28;20218;-66
2022/11/09 10:07:03;;;;;;;3.42;1.58;;;14.60;99.90;;;;;;5026092;28;20186;-67
2022/11/09 10:09:50;;;;;;;2.47;1.52;;;14.80;99.90;;;;;;5031253;28;20167;-66
2022/11/09 10:12:18;;;;;;;6.45;1.45;;;15.00;99.90;;;;;;5026915;28;20186;-65
2022/11/09 10:15:08;;;;;;;2.67;1.13;;;15.00;99.90;;;;;;5030492;28;20695;-66
2022/11/09 10:17:39;;;;;;;4.25;1.10;;;15.10;99.90;;;;;;5030726;28;20647;-65
2022/11/09 10:20:27;;;;;;;4.47;1.13;;;15.20;99.90;;;;;;5033384;28;20178;-67
2022/11/09 10:23:16;;;;;;;1.20;1.00;;;15.10;99.90;;;;;;5033765;28;20515;-67
2022/11/09 10:25:45;;;;;;;2.90;1.83;;;15.10;99.90;;;;;;5032904;28;20695;-66
2022/11/09 10:28:14;;;;;;;4.18;1.60;;;15.10;99.90;;;;;;5030719;28;20664;-67
2022/11/09 10:30:40;;;;;;;8.55;2.60;;;15.10;99.90;;;;;;5032185;28;20228;-67
2022/11/09 10:33:20;;;;;;;3.58;0.90;;;15.10;99.90;;;;;;5005965;28;20260;-67
2022/11/09 10:36:01;;;;;;;6.05;1.33;;;15.00;99.90;;;;;;5034047;28;20218;-66
2022/11/09 10:38:40;;;;;;;1.67;1.30;;;14.90;99.90;;;;;;5033943;28;20178;-66
2022/11/09 10:41:28;;;;;;;1.10;0.82;;;14.90;99.90;;;;;;5049676;28;20597;-66
2022/11/09 10:43:54;;;;;;;5.30;2.13;;;14.70;99.90;;;;;;5026140;28;20708;-66
2022/11/09 10:46:20;;;;;;;5.80;2.05;;;14.70;99.90;;;;;;5032507;28;20274;-66
2022/11/09 10:48:46;;;;;;;2.85;2.00;;;14.90;99.90;;;;;;5030055;28;20186;-66
2022/11/09 10:51:39;;;;;;;3.00;1.33;;;15.10;99.90;;;;;;5032033;28;20178;-66
2022/11/09 10:54:21;;;;;;;6.75;1.80;;;15.50;99.90;;;;;;5010490;28;20224;-67
2022/11/09 10:56:51;;;;;;;2.45;1.35;;;15.50;99.90;;;;;;5016903;28;20176;-67
2022/11/09 10:59:35;;;;;;;3.92;1.65;;;15.50;99.90;;;;;;5032793;28;20565;-67
2022/11/09 11:02:00;;;;;;;3.92;2.00;;;15.50;99.90;;;;;;5029309;28;20274;-67
2022/11/09 11:04:26;;;;;;;4.22;1.40;;;15.70;99.90;;;;;;5015826;28;20313;-67
2022/11/09 11:06:52;;;;;;;3.85;1.13;;;15.80;99.90;;;;;;5014126;28;20179;-66
2022/11/09 11:09:22;;;;;;;4.75;2.08;;;15.80;99.90;;;;;;4985248;28;20187;-66
2022/11/09 11:11:47;;;;;;;3.28;1.00;;;15.90;99.90;;;;;;5031946;28;20221;-67
2022/11/09 11:14:18;;;;;;;5.55;1.45;;;15.90;99.90;;;;;;5032540;28;20218;-66
2022/11/09 11:16:45;;;;;;;2.45;1.63;;;15.90;99.90;;;;;;5025001;28;20178;-67
2022/11/09 11:19:36;;;;;;;5.50;1.75;;;15.80;99.90;;;;;;5018444;28;20233;-68
2022/11/09 11:22:11;;;;;;;6.53;2.15;;;16.00;99.90;;;;;;5025358;28;20262;-66
2022/11/09 11:25:00;;;;;;;1.15;1.10;;;15.80;99.90;;;;;;5018847;28;20213;-67
2022/11/09 11:27:59;;;;;;;6.63;2.22;;;15.60;99.90;;;;;;5026275;28;20187;-67
2022/11/09 11:30:30;;;;;;;5.00;1.15;;;15.50;99.90;;;;;;5012832;28;20206;-67
2022/11/09 11:32:56;;;;;;;2.63;1.00;;;15.60;99.90;;;;;;5025120;28;20666;-68
2022/11/09 11:35:22;;;;;;;3.60;1.13;;;15.60;99.90;;;;;;5024475;28;20226;-67
2022/11/09 11:38:15;;;;;;;4.85;1.20;;;15.60;99.90;;;;;;5025771;28;20219;-67
2022/11/09 11:40:52;;;;;;;5.03;1.20;;;15.70;99.90;;;;;;5033254;28;20185;-67
2022/11/09 11:43:24;;;;;;;5.95;1.60;;;15.70;99.90;;;;;;5027818;28;20198;-66
2022/11/09 11:46:07;;;;;;;3.67;0.88;;;15.80;99.90;;;;;;5027364;28;20328;-66
2022/11/09 11:49:05;;;;;;;4.80;1.45;;;15.60;99.90;;;;;;5032474;28;20540;-66
2022/11/09 11:52:05;;;;;;;6.55;1.35;;;15.70;99.90;;;;;;5030053;28;20180;-66
2022/11/09 11:54:50;;;;;;;3.70;1.00;;;15.60;99.90;;;;;;5018539;28;20203;-66
2022/11/09 11:58:00;;;;;;;4.03;1.90;;;15.40;99.90;;;;;;5015061;28;20179;-67
2022/11/09 12:00:26;;;;;;;3.28;1.80;;;15.40;99.90;;;;;;4972154;28;20176;-66
2022/11/09 12:03:16;;;;;;;6.65;2.03;;;15.20;99.90;;;;;;4999586;28;20293;-66
2022/11/09 12:06:00;;;;;;;4.57;1.38;;;15.10;99.90;;;;;;5032507;28;20215;-67
2022/11/09 12:08:43;;;;;;;2.30;1.63;;;15.10;99.90;;;;;;5032539;28;20189;-66
2022/11/09 12:11:40;;;;;;;3.85;1.30;;;14.90;99.90;;;;;;5023563;28;20510;-67
2022/11/09 12:14:28;;;;;;;1.48;1.02;;;15.10;99.90;;;;;;5042899;28;20183;-68
2022/11/09 12:16:59;;;;;;;2.88;1.45;;;15.10;99.90;;;;;;5029455;28;20186;-66
2022/11/09 12:19:40;;;;;;;5.10;1.73;;;14.90;99.90;;;;;;5028524;28;20178;-66
2022/11/09 12:22:16;;;;;;;5.40;1.27;;;14.90;99.90;;;;;;5031119;28;20754;-66
2022/11/09 12:24:54;;;;;;;2.40;1.73;;;14.80;99.90;;;;;;5024741;28;20671;-66
2022/11/09 12:27:50;;;;;;;1.45;1.10;;;14.70;99.90;;;;;;5021238;28;20191;-66
2022/11/09 12:30:20;;;;;;;3.20;1.30;;;14.40;99.90;;;;;;5020595;28;20230;-66
2022/11/09 12:33:25;;;;;;;1.27;1.17;;;14.30;99.90;;;;;;5027738;28;20648;-66
2022/11/09 12:36:05;;;;;;;2.17;1.30;;;14.10;99.90;;;;;;4951498;29;20189;-66
2022/11/09 12:38:37;;;;;;;4.80;1.60;;;14.00;99.90;;;;;;5024833;28;20713;-65
2022/11/09 12:41:11;;;;;;;1.02;0.80;;;13.80;99.90;;;;;;5032474;28;20636;-65
2022/11/09 12:43:44;;;;;;;2.63;0.90;;;13.70;99.90;;;;;;5030967;28;20185;-65
2022/11/09 12:46:12;;;;;;;7.10;1.05;;;13.70;99.90;;;;;;5042522;28;20210;-65
2022/11/09 12:48:39;;;;;;;3.85;2.08;;;13.70;99.90;;;;;;5025411;28;20183;-64
2022/11/09 12:51:07;;;;;;;3.15;1.15;;;13.70;99.90;;;;;;5016759;28;20179;-65
2022/11/09 12:53:35;;;;;;;1.52;1.20;;;13.80;99.90;;;;;;5027169;28;20187;-65
2022/11/09 12:56:16;;;;;;;0.95;0.95;;;14.00;99.90;;;;;;5030691;28;20178;-66